Fischer, Texas
Current Conditions -  °F | °C
As of 6:51 AM on Thursday 23 Oct 2014 (Local Time) from KBAZ Reporting Station
Haze Haze  
Wind Chill: 65°   Ceiling: Unl
Heat Index: 65°   Visibility: 3mi
Dew Point: 65°   Wind: 3mph
Humidity: 100%   Direction: 360°N
Pressure: 30.09"   Gusts: NA
Location:  29.98°N, 98.27°W
Report Text: KBAZ 231151Z 36003KT 3SM BR CLR 18/18 A3009 RMK AO2 SLP183 60003 70003 T01830183 10222 20183 55000 $
Loading
Personal Weather Stations






























Interactive Weather Map
Tropical Storm Tracking
New forecast layout! Learn more

10-Day Weather Forecast

Advertisements
Track Severe Weather on mobile